Time;durP1;ratioP1;P1;durP2;ratioP2;P2;SDS_P1;SDS_P2;PMS_P1;PMS_P2;Temp;Humidity;BMP_temperature;BMP_pressure;BME280_temperature;BME280_humidity;BME280_pressure;Samples;Min_cycle;Max_cycle;Signal;HPM_P1;HPM_P2
2023/05/06 00:00:51;;;;;;;6.35;5.43;;;9.70;99.90;;;;;;5033990;28;20124;-74
2023/05/06 00:03:16;;;;;;;7.70;6.20;;;9.70;99.90;;;;;;5034293;28;20468;-74
2023/05/06 00:05:44;;;;;;;7.73;6.20;;;9.80;99.90;;;;;;5045141;28;20078;-73
2023/05/06 00:08:10;;;;;;;6.70;5.70;;;9.80;99.90;;;;;;5022439;28;20477;-73
2023/05/06 00:10:36;;;;;;;7.28;6.50;;;9.80;99.90;;;;;;5024985;28;20693;-74
2023/05/06 00:13:02;;;;;;;6.40;5.73;;;9.80;99.90;;;;;;5038360;28;20041;-73
2023/05/06 00:15:28;;;;;;;11.18;6.75;;;9.80;99.90;;;;;;5033906;28;20040;-73
2023/05/06 00:17:54;;;;;;;9.00;6.23;;;9.80;99.90;;;;;;5027021;28;20049;-74
2023/05/06 00:20:20;;;;;;;6.60;5.72;;;9.80;99.90;;;;;;5035663;28;20060;-74
2023/05/06 00:22:46;;;;;;;8.67;6.23;;;9.90;99.90;;;;;;5036171;28;20036;-73
2023/05/06 00:25:12;;;;;;;8.27;6.77;;;9.90;99.90;;;;;;5046619;28;20280;-73
2023/05/06 00:27:38;;;;;;;8.90;6.50;;;9.90;99.90;;;;;;5046449;28;20037;-74
2023/05/06 00:30:04;;;;;;;7.30;6.50;;;9.90;99.90;;;;;;5044455;28;20119;-74
2023/05/06 00:32:30;;;;;;;7.20;6.00;;;10.00;99.90;;;;;;5035060;28;20045;-74
2023/05/06 00:34:55;;;;;;;6.87;5.50;;;10.00;99.90;;;;;;5026751;28;20041;-73
2023/05/06 00:37:21;;;;;;;7.47;6.20;;;10.00;99.90;;;;;;5042634;28;20049;-73
2023/05/06 00:39:47;;;;;;;8.77;6.47;;;10.00;99.90;;;;;;5046570;28;20120;-74
2023/05/06 00:42:13;;;;;;;6.33;5.37;;;10.10;99.90;;;;;;5024793;28;20094;-74
2023/05/06 00:44:38;;;;;;;8.10;6.77;;;10.10;99.90;;;;;;5065953;28;20036;-74
2023/05/06 00:47:04;;;;;;;7.57;6.00;;;10.10;99.90;;;;;;5035646;28;20064;-74
2023/05/06 00:49:31;;;;;;;8.13;6.35;;;10.10;99.90;;;;;;5032241;28;20048;-73
2023/05/06 00:51:57;;;;;;;8.10;5.93;;;10.10;99.90;;;;;;5049997;28;20083;-74
2023/05/06 00:54:28;;;;;;;9.43;6.30;;;10.10;99.90;;;;;;5035470;28;20452;-73
2023/05/06 00:56:54;;;;;;;7.57;5.80;;;10.00;99.90;;;;;;5035403;28;20041;-74
2023/05/06 00:59:21;;;;;;;9.40;6.25;;;10.00;99.90;;;;;;5028550;28;20045;-74
2023/05/06 01:01:47;;;;;;;6.90;6.20;;;10.00;99.90;;;;;;5042479;28;20048;-74
2023/05/06 01:04:14;;;;;;;7.73;5.87;;;10.00;99.90;;;;;;5041810;28;20037;-74
2023/05/06 01:07:11;;;;;;;7.82;6.53;;;10.00;99.90;;;;;;5033344;28;20279;-74
2023/05/06 01:09:40;;;;;;;6.57;5.47;;;10.00;99.90;;;;;;5053907;28;20044;-73
2023/05/06 01:12:12;;;;;;;8.77;6.18;;;10.00;99.90;;;;;;5028353;28;20043;-74
2023/05/06 01:14:48;;;;;;;8.55;6.30;;;9.90;99.90;;;;;;5034793;28;20684;-74
2023/05/06 01:17:17;;;;;;;7.40;6.20;;;9.90;99.90;;;;;;5045677;28;20033;-73
2023/05/06 01:19:47;;;;;;;8.65;6.40;;;9.90;99.90;;;;;;5050544;28;20044;-75
2023/05/06 01:22:14;;;;;;;9.10;6.40;;;9.80;99.90;;;;;;5043456;28;20493;-74
2023/05/06 01:24:42;;;;;;;8.00;5.85;;;9.80;99.90;;;;;;5032395;28;20552;-74
2023/05/06 01:27:09;;;;;;;9.55;6.43;;;9.80;99.90;;;;;;5028642;28;20045;-74
2023/05/06 01:29:38;;;;;;;8.82;6.65;;;9.70;99.90;;;;;;5048605;28;20072;-74
2023/05/06 01:32:29;;;;;;;11.77;7.07;;;9.70;99.90;;;;;;5033103;28;20045;-74
2023/05/06 01:35:05;;;;;;;8.70;6.15;;;9.70;99.90;;;;;;5040075;28;20052;-74
2023/05/06 01:37:49;;;;;;;10.68;6.50;;;9.60;99.90;;;;;;5050471;28;20041;-74
2023/05/06 01:40:16;;;;;;;9.63;7.20;;;9.60;99.90;;;;;;5042767;28;20511;-74
2023/05/06 01:42:47;;;;;;;8.20;6.50;;;9.60;99.90;;;;;;5045543;28;20033;-74
2023/05/06 01:45:15;;;;;;;9.48;8.10;;;9.60;99.90;;;;;;5034799;28;20037;-74
2023/05/06 01:47:41;;;;;;;9.98;7.20;;;9.60;99.90;;;;;;5042197;28;20047;-74
2023/05/06 01:50:07;;;;;;;9.60;6.80;;;9.60;99.90;;;;;;5027817;28;20053;-74
2023/05/06 01:52:33;;;;;;;8.98;7.32;;;9.60;99.90;;;;;;5027306;28;20803;-74
2023/05/06 01:54:59;;;;;;;11.13;8.03;;;9.60;99.90;;;;;;5050526;28;20132;-74
2023/05/06 01:57:25;;;;;;;10.00;7.33;;;9.60;99.90;;;;;;5050460;28;20429;-74
2023/05/06 01:59:50;;;;;;;11.15;7.75;;;9.50;99.90;;;;;;5033070;28;20053;-73
2023/05/06 02:02:16;;;;;;;10.40;7.73;;;9.50;99.90;;;;;;5046145;28;20136;-74
2023/05/06 02:04:42;;;;;;;9.87;8.30;;;9.40;99.90;;;;;;5025644;28;20041;-74
2023/05/06 02:07:07;;;;;;;10.93;7.70;;;9.40;99.90;;;;;;5024736;28;20120;-74
2023/05/06 02:09:33;;;;;;;10.30;8.20;;;9.30;99.90;;;;;;5031901;28;20041;-74
2023/05/06 02:11:59;;;;;;;10.23;8.07;;;9.30;99.90;;;;;;5030063;28;20183;-74
2023/05/06 02:14:25;;;;;;;10.40;8.43;;;9.30;99.90;;;;;;5042301;28;20550;-74
2023/05/06 02:16:50;;;;;;;9.03;7.30;;;9.20;99.90;;;;;;5030206;28;20410;-73
2023/05/06 02:19:16;;;;;;;10.03;7.57;;;9.20;99.90;;;;;;5032473;28;20295;-73
2023/05/06 02:21:42;;;;;;;10.73;7.80;;;9.10;99.90;;;;;;5042191;28;20037;-74
2023/05/06 02:24:07;;;;;;;12.37;8.63;;;9.10;99.90;;;;;;5048258;28;20068;-74
2023/05/06 02:26:33;;;;;;;10.37;8.07;;;9.00;99.90;;;;;;5018676;28;20033;-74
2023/05/06 02:28:59;;;;;;;8.90;7.50;;;9.00;99.90;;;;;;5044443;28;20045;-74
2023/05/06 02:31:24;;;;;;;9.30;7.57;;;8.90;99.90;;;;;;5042287;28;20041;-74
2023/05/06 02:33:50;;;;;;;11.00;8.70;;;8.90;99.90;;;;;;5034813;28;20045;-73
2023/05/06 02:36:16;;;;;;;11.00;7.87;;;8.90;99.90;;;;;;5043089;28;20053;-74
2023/05/06 02:38:42;;;;;;;10.53;7.87;;;8.80;99.90;;;;;;5038274;28;20037;-74
2023/05/06 02:41:07;;;;;;;9.97;8.03;;;8.80;99.90;;;;;;5027142;28;20413;-75
2023/05/06 02:43:33;;;;;;;10.77;8.07;;;8.80;99.90;;;;;;5036047;28;20129;-74
2023/05/06 02:45:59;;;;;;;13.73;8.83;;;8.80;99.90;;;;;;5045042;28;20405;-74
2023/05/06 02:48:24;;;;;;;11.77;8.57;;;8.80;99.90;;;;;;5024414;28;20041;-73
2023/05/06 02:50:50;;;;;;;9.63;8.17;;;8.80;99.90;;;;;;5048194;28;20432;-74
2023/05/06 02:53:16;;;;;;;10.82;8.52;;;8.80;99.90;;;;;;5031355;28;20535;-74
2023/05/06 02:55:42;;;;;;;11.60;8.30;;;8.80;99.90;;;;;;5042682;28;20037;-73
2023/05/06 02:58:07;;;;;;;14.13;8.63;;;8.70;99.90;;;;;;5047565;28;20063;-74
2023/05/06 03:00:33;;;;;;;15.37;10.10;;;8.70;99.90;;;;;;5040369;28;20087;-74
2023/05/06 03:02:59;;;;;;;12.93;9.23;;;8.70;99.90;;;;;;5027168;28;20040;-74
2023/05/06 03:05:25;;;;;;;14.30;10.07;;;8.70;99.90;;;;;;5033907;28;20515;-75
2023/05/06 03:07:51;;;;;;;10.77;8.93;;;8.70;99.90;;;;;;5018007;28;20037;-73
2023/05/06 03:10:17;;;;;;;14.85;10.18;;;8.70;99.90;;;;;;5028058;28;20441;-74
2023/05/06 03:12:42;;;;;;;13.27;9.60;;;8.70;99.90;;;;;;5046202;28;20048;-74
2023/05/06 03:15:08;;;;;;;14.23;9.43;;;8.70;99.90;;;;;;5050950;28;20400;-74
2023/05/06 03:17:34;;;;;;;14.00;9.82;;;8.70;99.90;;;;;;5036665;28;20036;-73
2023/05/06 03:20:00;;;;;;;19.30;11.05;;;8.70;99.90;;;;;;5047433;28;20045;-73
2023/05/06 03:22:26;;;;;;;14.03;10.17;;;8.70;99.90;;;;;;5053260;28;20048;-74
2023/05/06 03:24:52;;;;;;;17.03;10.40;;;8.70;99.90;;;;;;5030331;28;20103;-73
2023/05/06 03:27:17;;;;;;;13.73;9.90;;;8.80;99.90;;;;;;5021475;28;20033;-73
2023/05/06 03:29:43;;;;;;;13.47;9.67;;;8.80;99.90;;;;;;5041153;28;20092;-75
2023/05/06 03:32:09;;;;;;;13.67;9.40;;;8.80;99.90;;;;;;5043213;28;20603;-74
2023/05/06 03:34:35;;;;;;;11.73;9.23;;;8.90;99.90;;;;;;5043160;28;20067;-74
2023/05/06 03:37:01;;;;;;;14.85;10.35;;;8.90;99.90;;;;;;5049852;28;20498;-74
2023/05/06 03:39:27;;;;;;;15.77;10.75;;;9.00;99.90;;;;;;5024664;28;20072;-74
2023/05/06 03:41:53;;;;;;;15.73;10.07;;;9.00;99.90;;;;;;5045655;28;20052;-74
2023/05/06 03:44:18;;;;;;;14.40;9.67;;;9.10;99.90;;;;;;5032064;28;20041;-74
2023/05/06 03:46:44;;;;;;;13.47;9.97;;;9.10;99.90;;;;;;5023290;28;20109;-74
2023/05/06 03:49:10;;;;;;;14.43;9.97;;;9.10;99.90;;;;;;5047719;28;20102;-74
2023/05/06 03:51:35;;;;;;;16.30;10.90;;;9.10;99.90;;;;;;5031271;28;20053;-74
2023/05/06 03:54:02;;;;;;;16.77;10.03;;;9.10;99.90;;;;;;5037727;28;20057;-74
2023/05/06 03:56:28;;;;;;;19.15;11.93;;;9.20;99.90;;;;;;5031516;28;20036;-73
2023/05/06 03:58:53;;;;;;;17.90;11.47;;;9.20;99.90;;;;;;5049741;28;20037;-74
2023/05/06 04:01:20;;;;;;;16.20;11.43;;;9.30;99.90;;;;;;5050068;28;20475;-74
2023/05/06 04:03:46;;;;;;;17.95;10.95;;;9.30;99.90;;;;;;5031134;28;20519;-74
2023/05/06 04:06:12;;;;;;;17.23;11.80;;;9.40;99.90;;;;;;5031569;28;20120;-74
2023/05/06 04:08:37;;;;;;;16.33;11.03;;;9.40;99.90;;;;;;5035369;28;20044;-74
2023/05/06 04:11:07;;;;;;;20.13;12.60;;;9.50;99.90;;;;;;5021201;28;20065;-74
2023/05/06 04:13:33;;;;;;;16.83;11.52;;;9.50;99.90;;;;;;5045568;28;20465;-74
2023/05/06 04:16:00;;;;;;;22.08;13.82;;;9.60;99.90;;;;;;5046750;28;20049;-74
2023/05/06 04:18:25;;;;;;;25.85;14.70;;;9.70;99.90;;;;;;5032279;28;20553;-74
2023/05/06 04:20:51;;;;;;;25.53;14.87;;;9.80;99.90;;;;;;5035689;28;20076;-74
2023/05/06 04:23:17;;;;;;;23.97;15.33;;;9.90;99.90;;;;;;5052900;28;20052;-74
2023/05/06 04:25:47;;;;;;;26.17;16.30;;;9.90;99.90;;;;;;5035215;28;20353;-74
2023/05/06 04:28:15;;;;;;;27.25;16.08;;;9.90;99.90;;;;;;5029579;28;20128;-74
2023/05/06 04:30:45;;;;;;;28.45;16.73;;;10.00;99.90;;;;;;5029518;28;20476;-74
2023/05/06 04:33:11;;;;;;;30.27;16.35;;;10.00;99.90;;;;;;5024252;28;20115;-73
2023/05/06 04:35:37;;;;;;;28.25;16.80;;;10.10;99.90;;;;;;5046250;28;20079;-74
2023/05/06 04:38:03;;;;;;;30.90;17.50;;;10.10;99.90;;;;;;5048824;28;20044;-74
2023/05/06 04:40:29;;;;;;;29.37;16.23;;;10.20;99.90;;;;;;5050186;28;20041;-74
2023/05/06 04:42:55;;;;;;;27.88;16.75;;;10.20;99.90;;;;;;5029532;28;20071;-74
2023/05/06 04:45:24;;;;;;;27.27;16.73;;;10.20;99.90;;;;;;5047267;28;20041;-74
2023/05/06 04:47:50;;;;;;;26.83;16.23;;;10.30;99.90;;;;;;5034548;28;20538;-77
2023/05/06 04:50:16;;;;;;;27.20;16.48;;;10.30;99.90;;;;;;5044487;28;20096;-74
2023/05/06 04:52:43;;;;;;;28.40;16.47;;;10.30;99.90;;;;;;5035710;28;20076;-74
2023/05/06 04:55:09;;;;;;;26.85;16.08;;;10.30;99.90;;;;;;5031753;28;20115;-74
2023/05/06 04:57:35;;;;;;;26.60;16.87;;;10.40;99.90;;;;;;5044541;28;20052;-74
2023/05/06 05:00:01;;;;;;;26.67;16.03;;;10.40;99.90;;;;;;5047418;28;20276;-74
2023/05/06 05:02:26;;;;;;;28.43;16.53;;;10.40;99.90;;;;;;5033128;28;20074;-74
2023/05/06 05:04:52;;;;;;;26.20;16.63;;;10.40;99.90;;;;;;5032511;28;20040;-74
2023/05/06 05:07:18;;;;;;;25.03;16.63;;;10.50;99.90;;;;;;5033095;28;20148;-74
2023/05/06 05:09:44;;;;;;;25.67;16.67;;;10.50;99.90;;;;;;5033905;28;20454;-74
2023/05/06 05:12:10;;;;;;;25.03;15.50;;;10.50;99.90;;;;;;5044260;28;20382;-74
2023/05/06 05:14:35;;;;;;;26.17;15.70;;;10.60;99.90;;;;;;5032188;28;20279;-74
2023/05/06 05:17:01;;;;;;;25.67;15.70;;;10.60;99.90;;;;;;5045956;28;20710;-74
2023/05/06 05:19:26;;;;;;;22.77;15.57;;;10.70;99.90;;;;;;5028552;28;20041;-74
2023/05/06 05:21:53;;;;;;;23.33;15.13;;;10.70;99.90;;;;;;5046976;28;20041;-74
2023/05/06 05:24:19;;;;;;;21.50;13.80;;;10.80;99.90;;;;;;5049217;28;20041;-74
2023/05/06 05:26:45;;;;;;;20.70;14.13;;;10.80;99.90;;;;;;5028110;28;20291;-74
2023/05/06 05:29:10;;;;;;;22.90;15.10;;;10.80;99.90;;;;;;5032563;28;20047;-74
2023/05/06 05:31:36;;;;;;;21.23;14.80;;;10.90;99.90;;;;;;5025613;28;20064;-74
2023/05/06 05:34:02;;;;;;;23.53;14.83;;;10.90;99.90;;;;;;5043499;28;20045;-74
2023/05/06 05:36:27;;;;;;;22.40;14.83;;;11.00;99.90;;;;;;5046391;28;20405;-74
2023/05/06 05:38:53;;;;;;;22.27;14.47;;;11.00;99.90;;;;;;5049187;28;20049;-74
2023/05/06 05:41:19;;;;;;;22.33;14.00;;;11.10;99.90;;;;;;5046230;28;20037;-74
2023/05/06 05:43:44;;;;;;;22.70;13.80;;;11.10;99.90;;;;;;5032657;28;20457;-75
2023/05/06 05:46:10;;;;;;;24.33;14.97;;;11.20;99.90;;;;;;5031025;28;20049;-74
2023/05/06 05:48:38;;;;;;;23.10;14.77;;;11.20;99.90;;;;;;5031480;28;20049;-74
2023/05/06 05:51:04;;;;;;;22.30;14.53;;;11.30;99.90;;;;;;5027075;28;20059;-75
2023/05/06 05:53:30;;;;;;;21.87;14.57;;;11.30;99.90;;;;;;5029581;28;20821;-74
2023/05/06 05:55:56;;;;;;;23.07;14.10;;;11.40;99.90;;;;;;5024079;28;20536;-74
2023/05/06 05:58:22;;;;;;;23.17;15.30;;;11.40;99.90;;;;;;5029242;28;20335;-74
2023/05/06 06:00:47;;;;;;;23.40;15.20;;;11.50;99.90;;;;;;5049274;28;20115;-74
2023/05/06 06:03:13;;;;;;;21.57;13.97;;;11.50;99.90;;;;;;5031313;28;20044;-74
2023/05/06 06:05:39;;;;;;;20.07;12.90;;;11.60;99.90;;;;;;5023822;28;20060;-74
2023/05/06 06:08:05;;;;;;;23.37;14.07;;;11.60;99.90;;;;;;5033533;28;20049;-74
2023/05/06 06:10:31;;;;;;;21.77;13.27;;;11.60;99.90;;;;;;5030938;28;20045;-74
2023/05/06 06:12:56;;;;;;;20.50;12.33;;;11.70;99.90;;;;;;5025186;28;20291;-74
2023/05/06 06:15:22;;;;;;;17.17;12.70;;;11.70;99.90;;;;;;5022860;28;20132;-74
2023/05/06 06:17:48;;;;;;;17.33;12.27;;;11.80;99.90;;;;;;5038962;28;20038;-74
2023/05/06 06:20:13;;;;;;;19.13;11.93;;;11.80;99.90;;;;;;5033301;28;20045;-74
2023/05/06 06:22:39;;;;;;;17.57;11.50;;;11.90;99.90;;;;;;5029096;28;20046;-74
2023/05/06 06:25:06;;;;;;;14.90;10.73;;;11.90;99.90;;;;;;5030488;28;20117;-74
2023/05/06 06:27:38;;;;;;;16.60;11.13;;;12.00;99.90;;;;;;5048499;28;20316;-74
2023/05/06 06:30:04;;;;;;;14.03;10.10;;;12.10;99.90;;;;;;5025239;28;20371;-74
2023/05/06 06:32:30;;;;;;;15.07;10.73;;;12.20;99.90;;;;;;5032619;28;20283;-74
2023/05/06 06:34:55;;;;;;;15.33;11.00;;;12.20;99.90;;;;;;5046647;28;20284;-74
2023/05/06 06:37:21;;;;;;;16.77;11.20;;;12.30;99.90;;;;;;5046624;28;20043;-74
2023/05/06 06:39:46;;;;;;;15.17;10.80;;;12.40;99.90;;;;;;5051673;28;20477;-74
2023/05/06 06:42:12;;;;;;;15.27;11.37;;;12.50;99.90;;;;;;5033283;28;20048;-74
2023/05/06 06:44:38;;;;;;;14.50;11.37;;;12.70;99.90;;;;;;5032027;28;20069;-75
2023/05/06 06:47:03;;;;;;;15.97;11.57;;;13.20;99.90;;;;;;5043935;28;20051;-74
2023/05/06 06:49:39;;;;;;;16.23;11.63;;;13.80;99.90;;;;;;5036429;28;20072;-74
2023/05/06 06:52:05;;;;;;;17.88;12.52;;;14.20;99.90;;;;;;5030134;28;20282;-74
2023/05/06 06:54:31;;;;;;;16.57;11.97;;;14.30;99.90;;;;;;5037217;28;20036;-74
2023/05/06 06:56:56;;;;;;;17.00;12.13;;;14.50;99.90;;;;;;5027003;28;20059;-74
2023/05/06 06:59:22;;;;;;;17.27;12.23;;;14.60;99.90;;;;;;5041655;28;20041;-74
2023/05/06 07:01:48;;;;;;;18.50;12.87;;;14.60;99.90;;;;;;5031371;28;20039;-74
2023/05/06 07:04:13;;;;;;;15.73;11.40;;;14.60;99.90;;;;;;5048061;28;20051;-74
2023/05/06 07:06:39;;;;;;;14.97;11.93;;;14.50;99.90;;;;;;5021030;28;20084;-75
2023/05/06 07:09:05;;;;;;;15.80;12.03;;;14.60;99.90;;;;;;5026674;28;20049;-75
2023/05/06 07:11:30;;;;;;;15.53;11.10;;;14.60;99.90;;;;;;5023025;28;20072;-75
2023/05/06 07:13:56;;;;;;;13.80;10.37;;;14.60;99.90;;;;;;5044698;28;20053;-75
2023/05/06 07:16:22;;;;;;;16.63;10.27;;;14.60;99.90;;;;;;5047544;28;20588;-75
2023/05/06 07:18:48;;;;;;;14.63;10.10;;;14.50;99.90;;;;;;5024632;28;20042;-75
2023/05/06 07:21:14;;;;;;;12.63;10.57;;;14.50;99.90;;;;;;5045126;28;20041;-75
2023/05/06 07:23:40;;;;;;;12.70;9.60;;;14.50;99.90;;;;;;5033118;28;20287;-74
2023/05/06 07:26:06;;;;;;;15.13;9.77;;;14.50;99.90;;;;;;5034240;28;20052;-74
2023/05/06 07:28:31;;;;;;;10.37;8.60;;;14.60;99.90;;;;;;5037829;28;20047;-74
2023/05/06 07:30:57;;;;;;;10.63;7.90;;;14.60;99.90;;;;;;5026724;28;20475;-74
2023/05/06 07:33:23;;;;;;;13.00;8.33;;;14.70;99.90;;;;;;5023615;28;20037;-74
2023/05/06 07:35:48;;;;;;;12.57;9.00;;;14.70;99.90;;;;;;5035380;28;20106;-74
2023/05/06 07:38:14;;;;;;;11.63;8.23;;;14.80;99.90;;;;;;5029906;28;20500;-74
2023/05/06 07:40:40;;;;;;;8.80;7.70;;;14.90;99.90;;;;;;5030374;28;20037;-74
2023/05/06 07:43:07;;;;;;;9.67;7.77;;;15.00;99.90;;;;;;5039066;28;20048;-74
2023/05/06 07:45:32;;;;;;;9.37;7.17;;;15.10;99.90;;;;;;5031823;28;20025;-74
2023/05/06 07:47:58;;;;;;;9.83;7.37;;;15.20;99.90;;;;;;5030562;28;20362;-74
2023/05/06 07:50:24;;;;;;;10.97;7.30;;;15.20;99.90;;;;;;5043917;28;20135;-74
2023/05/06 07:52:50;;;;;;;9.13;7.20;;;15.30;99.90;;;;;;5034177;28;20041;-74
2023/05/06 07:55:15;;;;;;;9.87;7.27;;;15.40;99.90;;;;;;5041425;28;20045;-74
2023/05/06 07:57:41;;;;;;;8.40;7.47;;;15.50;99.90;;;;;;5048709;28;20124;-74
2023/05/06 08:00:08;;;;;;;10.00;7.80;;;15.60;99.90;;;;;;5027897;28;20044;-73
2023/05/06 08:02:34;;;;;;;8.50;7.00;;;15.60;99.90;;;;;;5016411;28;20124;-73
2023/05/06 08:05:00;;;;;;;11.87;7.77;;;15.60;99.90;;;;;;5024290;28;20429;-73
2023/05/06 08:07:26;;;;;;;10.60;7.87;;;15.60;99.90;;;;;;5052605;28;20033;-73
2023/05/06 08:09:52;;;;;;;10.23;8.03;;;15.70;99.90;;;;;;5026451;28;20037;-74
2023/05/06 08:12:17;;;;;;;9.60;8.17;;;15.80;99.90;;;;;;5043864;28;20374;-74
2023/05/06 08:14:43;;;;;;;11.67;9.10;;;15.80;99.90;;;;;;5026501;28;20119;-74
2023/05/06 08:17:09;;;;;;;10.60;8.87;;;16.00;99.90;;;;;;5018342;28;20037;-74
2023/05/06 08:19:35;;;;;;;10.93;9.37;;;16.10;99.90;;;;;;5042553;28;20556;-74
2023/05/06 08:22:00;;;;;;;11.57;9.57;;;16.10;99.90;;;;;;5045263;28;20543;-74
2023/05/06 08:24:27;;;;;;;11.53;8.83;;;16.20;99.90;;;;;;5020770;28;20045;-74
2023/05/06 08:26:52;;;;;;;10.53;8.80;;;16.30;99.90;;;;;;5031331;28;20455;-74
2023/05/06 08:29:18;;;;;;;12.63;9.17;;;16.30;99.90;;;;;;5025901;28;20377;-73
2023/05/06 08:31:44;;;;;;;13.20;9.90;;;16.30;99.90;;;;;;5046434;28;20071;-74
2023/05/06 08:34:09;;;;;;;11.17;8.83;;;16.40;99.90;;;;;;5022995;28;20036;-74
2023/05/06 08:36:35;;;;;;;11.77;8.97;;;16.50;99.90;;;;;;5045452;28;20044;-74
2023/05/06 08:39:01;;;;;;;9.87;8.70;;;16.50;99.90;;;;;;5042775;28;20360;-74
2023/05/06 08:41:29;;;;;;;10.27;8.90;;;16.60;99.90;;;;;;5045692;28;20501;-74
2023/05/06 08:43:57;;;;;;;9.53;8.23;;;16.70;99.90;;;;;;5039694;28;20813;-74
2023/05/06 08:46:23;;;;;;;12.57;8.60;;;16.80;99.90;;;;;;5018566;28;20279;-74
2023/05/06 08:48:48;;;;;;;10.33;8.37;;;17.00;99.90;;;;;;5022366;28;20313;-74
2023/05/06 08:51:15;;;;;;;14.07;9.53;;;17.20;99.90;;;;;;5045673;28;20462;-74
2023/05/06 08:53:47;;;;;;;11.10;9.03;;;17.20;99.90;;;;;;5036993;28;20060;-74
2023/05/06 08:56:15;;;;;;;12.17;9.23;;;17.20;99.90;;;;;;5045589;28;20767;-74
2023/05/06 08:58:44;;;;;;;11.87;9.40;;;17.30;99.90;;;;;;5027220;28;20304;-74
2023/05/06 09:01:10;;;;;;;11.07;9.60;;;17.50;99.90;;;;;;5027593;28;20283;-74
2023/05/06 09:03:36;;;;;;;14.47;9.37;;;17.60;99.90;;;;;;5045655;28;20291;-74
2023/05/06 09:06:02;;;;;;;12.70;9.97;;;17.80;99.90;;;;;;5035655;28;20044;-74
2023/05/06 09:08:28;;;;;;;11.93;9.30;;;17.90;99.90;;;;;;5027721;28;20399;-74
2023/05/06 09:10:53;;;;;;;12.30;9.40;;;18.00;99.90;;;;;;5043314;28;20056;-74
2023/05/06 09:13:19;;;;;;;12.17;9.83;;;18.20;99.90;;;;;;5023797;28;20044;-74
2023/05/06 09:15:46;;;;;;;12.90;10.37;;;18.30;99.90;;;;;;5029888;28;20536;-74
2023/05/06 09:18:13;;;;;;;14.53;11.80;;;18.40;99.90;;;;;;5028548;28;20087;-74
2023/05/06 09:20:44;;;;;;;13.77;10.83;;;18.40;99.90;;;;;;5015217;28;20128;-74
2023/05/06 09:23:12;;;;;;;15.23;11.60;;;18.50;99.90;;;;;;5045106;28;20294;-74
2023/05/06 09:25:38;;;;;;;15.63;10.90;;;18.60;99.90;;;;;;5036111;28;20104;-74
2023/05/06 09:28:09;;;;;;;16.27;11.63;;;18.70;99.90;;;;;;5028584;28;20279;-74
2023/05/06 09:30:40;;;;;;;16.57;11.63;;;18.70;99.90;;;;;;5028884;28;20132;-74
2023/05/06 09:33:06;;;;;;;14.07;11.40;;;18.70;99.90;;;;;;5031882;28;20587;-74
2023/05/06 09:35:42;;;;;;;15.27;10.83;;;18.80;99.90;;;;;;5028636;28;20548;-74
2023/05/06 09:38:08;;;;;;;13.90;11.50;;;18.90;99.90;;;;;;5043858;28;20132;-74
2023/05/06 09:40:35;;;;;;;19.63;13.23;;;19.00;99.90;;;;;;5034906;28;20107;-74
2023/05/06 09:43:02;;;;;;;18.37;15.13;;;19.10;99.90;;;;;;5041463;28;20037;-74
2023/05/06 09:45:28;;;;;;;18.53;14.33;;;19.30;99.90;;;;;;5024348;28;20375;-74
2023/05/06 09:47:54;;;;;;;16.80;12.77;;;19.50;99.90;;;;;;5022475;28;20056;-74
2023/05/06 09:50:21;;;;;;;14.70;12.87;;;19.70;99.90;;;;;;5021928;28;20425;-74
2023/05/06 09:52:49;;;;;;;21.73;15.23;;;19.70;99.90;;;;;;5041291;28;20041;-74
2023/05/06 09:55:18;;;;;;;22.77;17.13;;;19.90;99.90;;;;;;5018302;28;20053;-74
2023/05/06 09:57:45;;;;;;;20.17;15.70;;;20.00;99.90;;;;;;5017157;28;20045;-74
2023/05/06 10:00:12;;;;;;;19.57;16.57;;;20.00;99.90;;;;;;5025114;28;20038;-74
2023/05/06 10:02:40;;;;;;;21.37;16.70;;;20.00;99.90;;;;;;5021261;28;20041;-74
2023/05/06 10:05:07;;;;;;;20.23;16.20;;;20.00;99.90;;;;;;5013464;28;20396;-74
2023/05/06 10:07:33;;;;;;;21.30;16.63;;;20.00;99.90;;;;;;5025140;28;20048;-74
2023/05/06 10:10:00;;;;;;;24.60;18.00;;;20.00;99.90;;;;;;5033284;28;20100;-74
2023/05/06 10:12:27;;;;;;;23.47;18.73;;;19.90;99.90;;;;;;5044877;28;20041;-74
2023/05/06 10:14:53;;;;;;;23.33;18.33;;;19.80;99.90;;;;;;5018591;28;20222;-74
2023/05/06 10:17:24;;;;;;;23.83;17.93;;;19.60;99.90;;;;;;5041973;28;20516;-74
2023/05/06 10:19:54;;;;;;;25.37;19.43;;;19.30;99.90;;;;;;5039339;28;20120;-74
2023/05/06 10:22:38;;;;;;;22.70;18.57;;;19.20;99.90;;;;;;5043864;28;20076;-74
2023/05/06 10:25:15;;;;;;;23.47;19.73;;;19.00;99.90;;;;;;5040592;28;20394;-74
2023/05/06 10:27:43;;;;;;;23.87;18.27;;;18.70;99.90;;;;;;5023832;28;20044;-74
2023/05/06 10:30:12;;;;;;;20.87;17.53;;;18.70;99.90;;;;;;5048084;28;20139;-74
2023/05/06 10:32:43;;;;;;;22.47;18.33;;;18.90;99.90;;;;;;5044787;28;20340;-74
2023/05/06 10:35:30;;;;;;;23.63;19.27;;;19.20;99.90;;;;;;5040718;28;20076;-74
2023/05/06 10:37:56;;;;;;;23.33;17.77;;;19.40;99.90;;;;;;5028667;28;20052;-74
2023/05/06 10:40:23;;;;;;;22.23;17.87;;;19.60;99.90;;;;;;5046561;28;20047;-74
2023/05/06 10:42:50;;;;;;;20.83;17.33;;;19.80;99.90;;;;;;5047777;28;20091;-74
2023/05/06 10:45:16;;;;;;;23.40;17.90;;;20.00;99.90;;;;;;5045089;28;20107;-74
2023/05/06 10:48:05;;;;;;;16.43;12.77;;;20.10;99.90;;;;;;5031411;28;20397;-74
2023/05/06 10:50:31;;;;;;;19.00;14.20;;;20.20;99.90;;;;;;5008503;28;20062;-74
2023/05/06 10:52:58;;;;;;;41.07;17.13;;;20.40;99.90;;;;;;5007136;28;20644;-74
2023/05/06 10:55:29;;;;;;;19.07;15.57;;;20.80;99.90;;;;;;5019966;28;20049;-74
2023/05/06 10:57:59;;;;;;;17.20;13.90;;;21.10;99.90;;;;;;4978997;28;20101;-74
2023/05/06 11:00:25;;;;;;;17.60;11.87;;;21.20;99.20;;;;;;4986559;28;20062;-74
2023/05/06 11:02:55;;;;;;;14.73;10.80;;;21.40;99.40;;;;;;4989195;28;20042;-74
2023/05/06 11:05:22;;;;;;;16.27;11.70;;;21.70;96.10;;;;;;4984142;28;20077;-74
2023/05/06 11:07:52;;;;;;;14.87;11.17;;;21.90;96.00;;;;;;5010252;28;20038;-74
2023/05/06 11:10:31;;;;;;;14.00;11.73;;;22.20;95.70;;;;;;5008480;28;20038;-74
2023/05/06 11:12:59;;;;;;;15.97;12.37;;;22.30;91.90;;;;;;4983320;28;20042;-75
2023/05/06 11:15:36;;;;;;;16.83;12.67;;;22.40;91.90;;;;;;5009270;28;20156;-74
2023/05/06 11:18:32;;;;;;;20.47;14.30;;;22.30;87.80;;;;;;4987862;28;20054;-74
2023/05/06 11:21:03;;;;;;;18.50;14.43;;;21.80;89.60;;;;;;5014294;28;20042;-74
2023/05/06 11:23:41;;;;;;;15.53;12.03;;;21.90;93.20;;;;;;5001562;28;20293;-74
2023/05/06 11:26:08;;;;;;;16.23;11.00;;;21.90;89.90;;;;;;4995965;28;20046;-74
2023/05/06 11:28:34;;;;;;;13.13;10.30;;;22.10;92.30;;;;;;4998579;28;20632;-74
2023/05/06 11:31:01;;;;;;;16.20;12.00;;;22.10;79.50;;;;;;5000516;28;20037;-74
2023/05/06 11:33:35;;;;;;;11.30;7.40;;;22.00;80.40;;;;;;4985095;28;20154;-74
2023/05/06 11:36:03;;;;;;;14.55;11.38;;;22.20;81.40;;;;;;4988532;28;20088;-74
2023/05/06 11:38:43;;;;;;;15.53;11.07;;;22.40;77.30;;;;;;5003146;28;20053;-74
2023/05/06 11:41:08;;;;;;;15.67;10.13;;;22.60;80.00;;;;;;5001879;28;20461;-71
2023/05/06 11:43:34;;;;;;;15.63;12.10;;;22.90;78.60;;;;;;4999742;28;20049;-70
2023/05/06 11:46:00;;;;;;;18.67;12.97;;;23.00;72.20;;;;;;4995115;28;20104;-75
2023/05/06 11:48:25;;;;;;;15.60;12.13;;;22.90;69.60;;;;;;4999027;28;20099;-75
2023/05/06 11:50:53;;;;;;;15.93;12.17;;;22.90;72.50;;;;;;5020611;28;20520;-75
2023/05/06 11:53:21;;;;;;;18.17;12.77;;;22.90;72.30;;;;;;5026137;28;20106;-75
2023/05/06 11:55:48;;;;;;;16.17;12.33;;;23.10;71.30;;;;;;5038109;28;20088;-75
2023/05/06 11:58:16;;;;;;;17.63;12.93;;;23.10;70.10;;;;;;5027077;28;20040;-75
2023/05/06 12:01:02;;;;;;;14.30;11.27;;;22.70;65.60;;;;;;5048536;28;20115;-75
2023/05/06 12:03:30;;;;;;;17.10;13.23;;;22.50;68.30;;;;;;5046098;28;20392;-75
2023/05/06 12:05:57;;;;;;;16.27;12.70;;;22.50;69.60;;;;;;5020992;28;20592;-75
2023/05/06 12:08:32;;;;;;;17.67;12.40;;;22.60;70.10;;;;;;5027677;28;20523;-75
2023/05/06 12:11:01;;;;;;;14.73;10.73;;;22.50;64.30;;;;;;5024872;28;20128;-75
2023/05/06 12:13:27;;;;;;;14.10;10.60;;;22.30;65.90;;;;;;5033768;28;20106;-75
2023/05/06 12:15:53;;;;;;;15.67;11.60;;;21.90;66.30;;;;;;5041709;28;20102;-75
2023/05/06 12:18:20;;;;;;;15.37;11.90;;;21.80;66.30;;;;;;5042430;28;20486;-75
2023/05/06 12:20:46;;;;;;;15.40;10.77;;;21.80;68.10;;;;;;5039617;28;20119;-75
2023/05/06 12:23:14;;;;;;;14.10;10.80;;;21.90;68.90;;;;;;5031058;28;20492;-75
2023/05/06 12:25:41;;;;;;;15.37;11.40;;;22.10;69.90;;;;;;5028297;28;20041;-75
2023/05/06 12:28:14;;;;;;;17.67;11.30;;;22.10;65.80;;;;;;5048225;28;20045;-75
2023/05/06 12:30:40;;;;;;;14.07;10.50;;;21.90;64.90;;;;;;5043695;28;20067;-75
2023/05/06 12:33:07;;;;;;;12.17;8.03;;;22.00;66.50;;;;;;5023037;28;20502;-74
2023/05/06 12:35:32;;;;;;;16.70;10.83;;;22.10;66.20;;;;;;5027013;28;20103;-75